EBLG/LGG METAR and TAF weather

Enter ICAO airport designator
Station Type Date Time Source
EBLG METAR 2022/06/25 22:20 UTC NOAA

EBLG 252220Z VRB01KT 9999 FEW012 16/15 Q1013 NOSIG


Station Type Date Time Source
EBLG Decoded METAR 2022/06/25 22:20 UTC NOAA

Bierset, Belgium (EBLG) 50-39N 005-27E 178M
Jun 25, 2022 - 06:20 PM EDT / 2022.06.25 2220 UTC
Wind: Variable at 1 MPH (1 KT):0
Visibility: greater than 7 mile(s):0
Sky conditions: mostly clear
Temperature: 60 F (16 C)
Dew Point: 59 F (15 C)
Relative Humidity: 93%
Pressure (altimeter): 29.91 in. Hg (1013 hPa)
ob: EBLG 252220Z VRB01KT 9999 FEW012 16/15 Q1013 NOSIG
cycle: 22

Station Type Date Time Source
EBLG TAF 2022/06/25 18:27 UTC NOAA

TAF EBLG 251700Z 2518/2624 27006KT 9999 SCT035
TEMPO 2518/2522 4000 SHRA PROB30
TEMPO 2518/2521 VRB20G35KT 2500 RA TSRA

Example: see airport list